Terminal Aerodrome Forecast
Issued by NWS Wilmington, OH

Current Version | Previous Version | Text Only | Print | Product List | Glossary Off
Versions: 1 2 3 4 5 6 7 8 9 10 11 12 13 14 15 16 17 18 19 20 21 22 23 24

805
FTUS41 KILN 201500 AAA
TAFCVG
TAF AMD
KCVG 201526Z 2015/2118 03007KT P6SM SCT100 BKN150
     FM210100 03005KT P6SM VCSH BKN040
     FM210600 02004KT P6SM VCSH OVC015
     FM211400 02004KT P6SM OVC035=

USA.gov is the U.S. government's official web portal to all federal, state and local government web resources and services.